Time;durP1;ratioP1;P1;durP2;ratioP2;P2;SDS_P1;SDS_P2;PMS_P1;PMS_P2;Temp;Humidity;BMP_temperature;BMP_pressure;BME280_temperature;BME280_humidity;BME280_pressure;Samples;Min_cycle;Max_cycle;Signal;HPM_P1;HPM_P2
2022/09/07 00:00:11;;;;;;;10.10;7.45;;;20.10;99.90;;;;;;5033641;28;20045;-66
2022/09/07 00:02:37;;;;;;;11.48;6.90;;;20.00;99.90;;;;;;5051380;28;20037;-66
2022/09/07 00:05:02;;;;;;;7.70;6.72;;;20.00;99.90;;;;;;5051212;28;20518;-67
2022/09/07 00:07:28;;;;;;;14.40;6.95;;;20.10;99.90;;;;;;5051122;28;20099;-66
2022/09/07 00:09:54;;;;;;;13.13;7.40;;;20.10;99.90;;;;;;5051660;28;20036;-66
2022/09/07 00:12:19;;;;;;;15.05;7.32;;;20.00;99.90;;;;;;5051501;28;20068;-66
2022/09/07 00:14:45;;;;;;;13.27;7.78;;;19.90;99.90;;;;;;5054519;28;20123;-66
2022/09/07 00:17:10;;;;;;;13.75;6.93;;;19.90;99.90;;;;;;5055499;28;20044;-66
2022/09/07 00:19:36;;;;;;;13.00;7.95;;;19.90;99.90;;;;;;5055376;28;20116;-67
2022/09/07 00:22:01;;;;;;;9.80;6.90;;;19.90;99.90;;;;;;5055378;28;20037;-66
2022/09/07 00:24:27;;;;;;;8.20;7.03;;;19.90;99.90;;;;;;5037321;28;20041;-66
2022/09/07 00:26:56;;;;;;;12.80;7.55;;;19.90;99.90;;;;;;5055219;28;20553;-66
2022/09/07 00:29:22;;;;;;;10.52;7.47;;;19.80;99.90;;;;;;5055254;28;20064;-66
2022/09/07 00:31:47;;;;;;;12.52;7.55;;;19.70;99.90;;;;;;5055227;28;20091;-66
2022/09/07 00:34:13;;;;;;;12.63;7.20;;;19.70;99.90;;;;;;5054838;28;20310;-66
2022/09/07 00:36:38;;;;;;;10.75;7.57;;;19.80;99.90;;;;;;5054701;28;20045;-66
2022/09/07 00:39:04;;;;;;;10.80;7.53;;;19.80;99.90;;;;;;5020673;28;20463;-66
2022/09/07 00:41:30;;;;;;;12.18;7.90;;;19.80;99.90;;;;;;5055143;28;20071;-66
2022/09/07 00:43:58;;;;;;;10.88;7.80;;;19.80;99.90;;;;;;5054665;28;20667;-66
2022/09/07 00:46:30;;;;;;;11.20;8.55;;;19.90;99.90;;;;;;5054924;28;20052;-66
2022/09/07 00:49:09;;;;;;;14.88;9.00;;;19.90;99.90;;;;;;5054790;28;20052;-66
2022/09/07 00:51:46;;;;;;;18.70;10.23;;;19.90;99.90;;;;;;5055063;28;20041;-67
2022/09/07 00:54:17;;;;;;;15.80;9.77;;;20.00;99.90;;;;;;5054734;28;20045;-66
2022/09/07 00:56:44;;;;;;;19.45;10.13;;;19.90;99.90;;;;;;5054718;28;20166;-66
2022/09/07 00:59:14;;;;;;;21.90;9.50;;;19.80;99.90;;;;;;5054594;28;20032;-67
2022/09/07 01:09:06;;;;;;;13.98;9.52;;;19.40;99.90;;;;;;5073893;28;20055;-67
2022/09/07 01:11:33;;;;;;;18.67;12.15;;;19.50;99.90;;;;;;5056441;28;20055;-67
2022/09/07 01:14:01;;;;;;;14.10;12.05;;;19.50;99.90;;;;;;5073911;28;20517;-67
2022/09/07 01:17:02;;;;;;;18.88;11.48;;;19.50;99.90;;;;;;5072965;28;20052;-67
2022/09/07 01:20:05;;;;;;;17.40;11.43;;;19.40;99.90;;;;;;5073756;28;20032;-67
2022/09/07 01:22:57;;;;;;;13.85;11.15;;;19.50;99.90;;;;;;5074263;28;20049;-68
2022/09/07 01:26:13;;;;;;;18.95;11.82;;;19.50;99.90;;;;;;5073451;28;20083;-68
2022/09/07 01:28:41;;;;;;;16.92;11.35;;;19.30;99.90;;;;;;5051346;28;20115;-67
2022/09/07 01:31:23;;;;;;;17.30;11.93;;;19.20;99.90;;;;;;5051599;28;20163;-67
2022/09/07 01:34:12;;;;;;;16.90;11.52;;;19.20;99.90;;;;;;5034666;28;20051;-68
2022/09/07 01:36:56;;;;;;;16.75;10.85;;;19.10;99.90;;;;;;5051631;28;20045;-67
2022/09/07 01:39:28;;;;;;;15.57;10.82;;;19.10;99.90;;;;;;5051463;28;20123;-67
2022/09/07 01:41:59;;;;;;;18.23;10.23;;;18.90;99.90;;;;;;5051457;28;20045;-67
2022/09/07 01:44:41;;;;;;;17.20;11.37;;;19.10;99.90;;;;;;5034461;28;20088;-67
2022/09/07 01:47:18;;;;;;;13.98;11.25;;;19.10;99.90;;;;;;5051313;28;20280;-67
2022/09/07 01:49:46;;;;;;;18.83;12.20;;;19.20;99.90;;;;;;5051351;28;20041;-67
2022/09/07 01:52:30;;;;;;;15.90;12.70;;;19.20;99.90;;;;;;5051078;28;20049;-67
2022/09/07 01:55:17;;;;;;;15.07;12.60;;;19.10;99.90;;;;;;5050967;28;20041;-67
2022/09/07 01:57:48;;;;;;;17.67;12.85;;;19.00;99.90;;;;;;5050967;28;20524;-67
2022/09/07 02:00:17;;;;;;;20.20;13.65;;;18.90;99.90;;;;;;5051166;28;20407;-67
2022/09/07 02:03:03;;;;;;;16.17;13.27;;;18.90;99.90;;;;;;5050497;28;20052;-68
2022/09/07 02:05:34;;;;;;;17.42;14.32;;;18.90;99.90;;;;;;5073209;28;20044;-67
2022/09/07 02:08:06;;;;;;;18.02;14.50;;;18.80;99.90;;;;;;5073168;28;20565;-69
2022/09/07 02:10:53;;;;;;;18.65;13.82;;;18.90;99.90;;;;;;5072205;28;20123;-68
2022/09/07 02:13:35;;;;;;;18.95;14.57;;;18.90;99.90;;;;;;5073438;28;20098;-68
2022/09/07 02:16:15;;;;;;;20.73;14.90;;;18.80;99.90;;;;;;5073032;28;20055;-67
2022/09/07 02:18:45;;;;;;;18.75;14.50;;;18.80;99.90;;;;;;5071831;28;20044;-68
2022/09/07 02:21:14;;;;;;;18.95;15.30;;;18.80;99.90;;;;;;5071582;28;20498;-67
2022/09/07 02:23:45;;;;;;;20.60;14.75;;;18.80;99.90;;;;;;5073132;28;20036;-68
2022/09/07 02:26:22;;;;;;;20.52;13.88;;;18.70;99.90;;;;;;5073083;28;20402;-68
2022/09/07 02:28:48;;;;;;;18.10;14.48;;;18.80;99.90;;;;;;5071899;28;20040;-67
2022/09/07 02:31:14;;;;;;;19.50;14.40;;;18.80;99.90;;;;;;5073057;28;20043;-67
2022/09/07 02:33:40;;;;;;;19.13;14.20;;;18.70;99.90;;;;;;5072911;28;20555;-68
2022/09/07 02:36:07;;;;;;;21.77;13.82;;;18.70;99.90;;;;;;5070512;28;20048;-68
2022/09/07 02:38:33;;;;;;;15.75;13.35;;;18.70;99.90;;;;;;5072736;28;20396;-68
2022/09/07 02:41:01;;;;;;;17.65;13.68;;;18.70;99.90;;;;;;5072593;28;20499;-68
2022/09/07 02:43:28;;;;;;;19.40;15.38;;;18.60;99.90;;;;;;5072697;28;20045;-68
2022/09/07 02:46:14;;;;;;;18.65;13.90;;;18.50;99.90;;;;;;5071033;28;20044;-68
2022/09/07 02:48:59;;;;;;;19.08;13.82;;;18.50;99.90;;;;;;5071535;28;20406;-68
2022/09/07 02:51:48;;;;;;;18.17;13.82;;;18.50;99.90;;;;;;5070985;28;20105;-68
2022/09/07 02:54:48;;;;;;;18.42;13.85;;;18.50;99.90;;;;;;5070927;28;20056;-68
2022/09/07 02:57:52;;;;;;;18.10;14.38;;;18.50;99.90;;;;;;5071196;28;20086;-68
2022/09/07 03:00:24;;;;;;;16.92;13.40;;;18.40;99.90;;;;;;5071027;28;20043;-68
2022/09/07 03:03:15;;;;;;;17.33;13.13;;;18.40;99.90;;;;;;5070753;28;20519;-68
2022/09/07 03:05:49;;;;;;;16.95;14.18;;;18.40;99.90;;;;;;5070619;28;20036;-68
2022/09/07 03:08:27;;;;;;;19.27;13.90;;;18.40;99.90;;;;;;5072099;28;20048;-68
2022/09/07 03:10:53;;;;;;;16.75;13.05;;;18.30;99.90;;;;;;5070871;28;20126;-68
2022/09/07 03:13:21;;;;;;;17.35;13.48;;;18.30;99.90;;;;;;5071957;28;20099;-68
2022/09/07 03:15:46;;;;;;;15.77;13.27;;;18.40;99.90;;;;;;5070676;28;20053;-68
2022/09/07 03:18:12;;;;;;;19.48;13.70;;;18.40;99.90;;;;;;5070624;28;20040;-68
2022/09/07 03:20:37;;;;;;;17.25;12.95;;;18.30;99.90;;;;;;5071639;28;20044;-68
2022/09/07 03:23:03;;;;;;;15.60;13.05;;;18.30;99.90;;;;;;5071846;28;20046;-69
2022/09/07 03:25:29;;;;;;;16.60;12.35;;;18.30;99.90;;;;;;5070556;28;20067;-68
2022/09/07 03:27:54;;;;;;;14.38;12.25;;;18.30;99.90;;;;;;5070508;28;20036;-68
2022/09/07 03:30:20;;;;;;;14.05;11.63;;;18.30;99.90;;;;;;5071808;28;20089;-68
2022/09/07 03:32:46;;;;;;;14.68;12.23;;;18.30;99.90;;;;;;5071546;28;20410;-68
2022/09/07 03:35:12;;;;;;;16.25;12.50;;;18.30;99.90;;;;;;5071417;28;20102;-68
2022/09/07 03:37:38;;;;;;;11.63;10.43;;;18.30;99.90;;;;;;5071641;28;20028;-68
2022/09/07 03:40:06;;;;;;;12.77;11.43;;;18.30;99.90;;;;;;5070607;28;20040;-68
2022/09/07 03:42:31;;;;;;;16.85;12.13;;;18.40;99.90;;;;;;5070588;28;20128;-68
2022/09/07 03:44:57;;;;;;;15.07;12.93;;;18.40;99.90;;;;;;5071233;28;20123;-68
2022/09/07 03:47:22;;;;;;;15.32;13.35;;;18.40;99.90;;;;;;5070169;28;20131;-68
2022/09/07 03:49:50;;;;;;;19.05;12.65;;;18.40;99.90;;;;;;5071745;28;20118;-67
2022/09/07 03:52:16;;;;;;;14.60;13.00;;;18.40;99.90;;;;;;5071684;28;20433;-67
2022/09/07 03:54:41;;;;;;;13.80;11.77;;;18.30;99.90;;;;;;5069897;28;20037;-68
2022/09/07 03:57:07;;;;;;;14.68;11.20;;;18.30;99.90;;;;;;5071497;28;20553;-68
2022/09/07 03:59:33;;;;;;;15.23;12.40;;;18.30;99.90;;;;;;5071463;28;20109;-68
2022/09/07 04:01:58;;;;;;;18.27;12.80;;;18.30;99.90;;;;;;5069889;28;20040;-67
2022/09/07 04:04:24;;;;;;;15.52;11.57;;;18.30;99.90;;;;;;5071302;28;20116;-68
2022/09/07 04:06:49;;;;;;;13.63;12.10;;;18.20;99.90;;;;;;5071583;28;20531;-68
2022/09/07 04:09:15;;;;;;;12.93;11.55;;;18.30;99.90;;;;;;5071406;28;20563;-68
2022/09/07 04:11:41;;;;;;;13.20;10.65;;;18.20;99.90;;;;;;5070004;28;20445;-68
2022/09/07 04:14:08;;;;;;;13.65;11.20;;;18.20;99.90;;;;;;5069934;28;20036;-68
2022/09/07 04:16:33;;;;;;;12.35;11.15;;;18.10;99.90;;;;;;5071247;28;20044;-68
2022/09/07 04:18:59;;;;;;;14.07;11.55;;;18.20;99.90;;;;;;5070047;28;20490;-68
2022/09/07 04:21:27;;;;;;;15.15;11.40;;;18.20;99.90;;;;;;5069875;28;20483;-68
2022/09/07 04:23:53;;;;;;;13.07;11.77;;;18.10;99.90;;;;;;5070892;28;20044;-68
2022/09/07 04:26:20;;;;;;;13.18;11.13;;;18.10;99.90;;;;;;5071214;28;20090;-67
2022/09/07 04:28:46;;;;;;;16.23;12.52;;;18.10;99.90;;;;;;5071247;28;20032;-68
2022/09/07 04:31:14;;;;;;;14.75;12.18;;;18.10;99.90;;;;;;5071071;28;20037;-67
2022/09/07 04:33:40;;;;;;;13.25;11.60;;;18.10;99.90;;;;;;5070112;28;20424;-68
2022/09/07 04:36:06;;;;;;;15.30;13.25;;;18.10;99.90;;;;;;5069647;28;20045;-68
2022/09/07 04:38:32;;;;;;;14.25;12.48;;;18.10;99.90;;;;;;5069959;28;20124;-68
2022/09/07 04:41:05;;;;;;;19.77;14.35;;;18.10;99.90;;;;;;5071125;28;20158;-67
2022/09/07 04:43:31;;;;;;;15.35;13.75;;;18.10;99.90;;;;;;5069811;28;20067;-67
2022/09/07 04:46:00;;;;;;;15.48;13.38;;;18.10;99.90;;;;;;5070564;28;20041;-68
2022/09/07 04:48:25;;;;;;;16.17;14.23;;;18.10;99.90;;;;;;5070956;28;20498;-68
2022/09/07 04:50:51;;;;;;;18.45;15.20;;;18.20;99.90;;;;;;5071059;28;20043;-68
2022/09/07 04:53:17;;;;;;;17.77;15.10;;;18.20;99.90;;;;;;5069632;28;20127;-68
2022/09/07 04:55:42;;;;;;;18.48;15.43;;;18.10;99.90;;;;;;5070762;28;20044;-67
2022/09/07 04:58:08;;;;;;;18.20;16.00;;;18.10;99.90;;;;;;5070865;28;20086;-68
2022/09/07 05:00:34;;;;;;;20.63;16.45;;;18.00;99.90;;;;;;5072471;28;20048;-67
2022/09/07 05:03:00;;;;;;;20.77;16.00;;;18.10;99.90;;;;;;5074317;28;20052;-67
2022/09/07 05:05:25;;;;;;;21.25;16.92;;;18.10;99.90;;;;;;5073534;28;20051;-68
2022/09/07 05:07:51;;;;;;;25.30;17.17;;;18.20;99.90;;;;;;5070397;28;20475;-68
2022/09/07 05:10:17;;;;;;;22.10;18.17;;;18.20;99.90;;;;;;5070828;28;20402;-67
2022/09/07 05:12:42;;;;;;;21.40;17.90;;;18.10;99.90;;;;;;5071163;28;20102;-67
2022/09/07 05:15:08;;;;;;;20.73;17.02;;;18.20;99.90;;;;;;5074229;28;20036;-68
2022/09/07 05:17:34;;;;;;;19.63;17.23;;;18.10;99.90;;;;;;5073843;28;20047;-68
2022/09/07 05:19:59;;;;;;;21.05;18.17;;;18.10;99.90;;;;;;5072973;28;20040;-68
2022/09/07 05:22:25;;;;;;;20.52;18.33;;;18.20;99.90;;;;;;5072890;28;20075;-68
2022/09/07 05:24:51;;;;;;;23.85;19.05;;;18.20;99.90;;;;;;5072793;28;20095;-68
2022/09/07 05:27:17;;;;;;;21.35;18.10;;;18.20;99.90;;;;;;5071783;28;20049;-68
2022/09/07 05:29:42;;;;;;;23.13;18.88;;;18.20;99.90;;;;;;5073600;28;20045;-68
2022/09/07 05:32:08;;;;;;;25.60;19.70;;;18.20;99.90;;;;;;5073992;28;20040;-67
2022/09/07 05:34:33;;;;;;;25.00;19.30;;;18.10;99.90;;;;;;5073644;28;20522;-68
2022/09/07 05:37:00;;;;;;;23.70;18.13;;;18.10;99.90;;;;;;5073897;28;20037;-67
2022/09/07 05:39:25;;;;;;;23.63;19.75;;;18.10;99.90;;;;;;5073751;28;20550;-68
2022/09/07 05:41:51;;;;;;;26.35;20.25;;;18.10;99.90;;;;;;5073912;28;20116;-68
2022/09/07 05:44:16;;;;;;;24.05;20.10;;;18.10;99.90;;;;;;5072140;28;20115;-67
2022/09/07 05:46:42;;;;;;;25.55;20.10;;;18.10;99.90;;;;;;5073901;28;20513;-68
2022/09/07 05:49:08;;;;;;;26.48;21.05;;;18.10;99.90;;;;;;5072335;28;20040;-67
2022/09/07 05:51:35;;;;;;;26.90;20.08;;;18.10;99.90;;;;;;5073561;28;20070;-67
2022/09/07 05:54:01;;;;;;;26.20;20.75;;;18.10;99.90;;;;;;5073295;28;20425;-67
2022/09/07 05:56:27;;;;;;;25.20;21.65;;;18.10;99.90;;;;;;5073455;28;20123;-67
2022/09/07 05:58:52;;;;;;;29.23;21.00;;;18.10;99.90;;;;;;5073639;28;20041;-67
2022/09/07 06:01:18;;;;;;;26.05;20.95;;;18.20;99.90;;;;;;5071928;28;20506;-67
2022/09/07 06:03:44;;;;;;;31.73;21.48;;;18.10;99.90;;;;;;5073114;28;20036;-67
2022/09/07 06:06:15;;;;;;;30.40;20.67;;;18.20;99.90;;;;;;5073480;28;20105;-67
2022/09/07 06:08:49;;;;;;;26.97;21.57;;;18.10;99.90;;;;;;5073356;28;20497;-67
2022/09/07 06:11:20;;;;;;;25.05;20.98;;;18.10;99.90;;;;;;5072029;28;20037;-67
2022/09/07 06:13:46;;;;;;;31.77;21.60;;;18.20;99.90;;;;;;5073086;28;20387;-67
2022/09/07 06:16:13;;;;;;;27.23;21.80;;;18.10;99.90;;;;;;5073093;28;20044;-67
2022/09/07 06:18:41;;;;;;;27.52;21.42;;;18.10;99.90;;;;;;5073051;28;20044;-67
2022/09/07 06:21:09;;;;;;;25.35;21.70;;;18.10;99.90;;;;;;5072818;28;20394;-67
2022/09/07 06:23:36;;;;;;;27.70;21.25;;;18.20;99.90;;;;;;5072928;28;20123;-67
2022/09/07 06:26:04;;;;;;;28.50;21.98;;;18.30;99.90;;;;;;5072668;28;20040;-67
2022/09/07 06:28:32;;;;;;;29.65;21.88;;;18.30;99.90;;;;;;5072816;28;20033;-67
2022/09/07 06:31:10;;;;;;;30.08;22.17;;;18.30;99.90;;;;;;5071619;28;20045;-67
2022/09/07 06:33:36;;;;;;;26.83;21.17;;;18.30;99.90;;;;;;5072638;28;20506;-67
2022/09/07 06:36:22;;;;;;;32.00;20.77;;;18.30;99.90;;;;;;5071174;28;20118;-67
2022/09/07 06:38:48;;;;;;;28.70;21.85;;;18.40;99.90;;;;;;5072563;28;20036;-67
2022/09/07 06:41:25;;;;;;;31.98;20.10;;;18.40;99.90;;;;;;5072624;28;20086;-67
2022/09/07 06:43:52;;;;;;;23.45;18.38;;;18.40;99.90;;;;;;5071103;28;20359;-67
2022/09/07 06:46:18;;;;;;;23.52;19.40;;;18.40;99.90;;;;;;5071250;28;20040;-67
2022/09/07 06:48:43;;;;;;;26.27;18.85;;;18.40;99.90;;;;;;5072541;28;20059;-67
2022/09/07 06:51:18;;;;;;;20.13;17.85;;;18.40;99.90;;;;;;5072426;28;20037;-67
2022/09/07 06:53:45;;;;;;;22.48;17.20;;;18.40;99.90;;;;;;5072108;28;20055;-67
2022/09/07 06:56:13;;;;;;;23.00;17.60;;;18.40;99.90;;;;;;5071304;28;20083;-67
2022/09/07 06:58:39;;;;;;;25.83;17.83;;;18.40;99.90;;;;;;5072256;28;20041;-67
2022/09/07 07:01:13;;;;;;;28.77;17.95;;;18.40;99.90;;;;;;5072289;28;20036;-67
2022/09/07 07:03:39;;;;;;;24.10;17.15;;;18.40;99.90;;;;;;5071912;28;20459;-67
2022/09/07 07:06:05;;;;;;;23.85;17.77;;;18.30;99.90;;;;;;5071808;28;20127;-67
2022/09/07 07:08:31;;;;;;;21.63;17.77;;;18.40;99.90;;;;;;5072122;28;20035;-67
2022/09/07 07:11:04;;;;;;;24.02;17.55;;;18.40;99.90;;;;;;5072233;28;20406;-67
2022/09/07 07:13:30;;;;;;;28.27;18.00;;;18.50;99.90;;;;;;5072056;28;20044;-68
2022/09/07 07:16:07;;;;;;;22.80;18.05;;;18.50;99.90;;;;;;5070431;28;20048;-67
2022/09/07 07:18:33;;;;;;;20.48;17.33;;;18.60;99.90;;;;;;5061558;28;20499;-67
2022/09/07 07:21:06;;;;;;;23.17;18.25;;;18.60;99.90;;;;;;5060606;28;20119;-67
2022/09/07 07:23:33;;;;;;;26.15;18.45;;;18.60;99.90;;;;;;5069607;28;20514;-71
2022/09/07 07:26:12;;;;;;;28.92;20.08;;;18.60;99.90;;;;;;5071353;28;20048;-67
2022/09/07 07:28:38;;;;;;;27.65;19.23;;;18.60;99.90;;;;;;5071874;28;20037;-67
2022/09/07 07:31:05;;;;;;;25.77;19.73;;;18.60;99.90;;;;;;5071772;28;20040;-67
2022/09/07 07:33:32;;;;;;;28.40;20.75;;;18.60;99.90;;;;;;5071929;28;20044;-68
2022/09/07 07:36:16;;;;;;;27.20;20.20;;;18.60;99.90;;;;;;5071694;28;20402;-67
2022/09/07 07:38:43;;;;;;;30.13;21.05;;;18.60;99.90;;;;;;5071834;28;20120;-67
2022/09/07 07:41:10;;;;;;;36.53;22.13;;;18.60;99.90;;;;;;5071708;28;20047;-67
2022/09/07 07:43:36;;;;;;;31.92;21.88;;;18.60;99.90;;;;;;5071437;28;20032;-67
2022/09/07 07:46:02;;;;;;;34.13;22.05;;;18.60;99.90;;;;;;5071440;28;20119;-67
2022/09/07 07:48:29;;;;;;;32.15;23.17;;;18.70;99.90;;;;;;5071347;28;20526;-67
2022/09/07 07:51:06;;;;;;;31.05;24.10;;;18.70;99.90;;;;;;5069633;28;20041;-67
2022/09/07 07:53:34;;;;;;;35.50;23.85;;;18.70;99.90;;;;;;5068204;28;20040;-67
2022/09/07 07:56:01;;;;;;;30.58;22.85;;;18.70;99.90;;;;;;5067867;28;20040;-67
2022/09/07 07:58:27;;;;;;;35.35;23.35;;;18.70;99.90;;;;;;5069730;28;20042;-67
2022/09/07 08:01:01;;;;;;;34.03;23.15;;;18.70;99.90;;;;;;5068260;28;20123;-67
2022/09/07 08:03:27;;;;;;;36.35;23.65;;;18.80;99.90;;;;;;5068397;28;20036;-67
2022/09/07 08:05:54;;;;;;;33.22;24.92;;;18.80;99.90;;;;;;5060211;28;20665;-67
2022/09/07 08:08:20;;;;;;;34.58;25.00;;;18.80;99.90;;;;;;5067475;28;20040;-67
2022/09/07 08:10:46;;;;;;;32.67;24.00;;;18.90;99.90;;;;;;5071556;28;20044;-67
2022/09/07 08:13:13;;;;;;;32.28;23.45;;;18.90;99.90;;;;;;5071311;28;20080;-67
2022/09/07 08:15:44;;;;;;;31.45;23.42;;;19.00;99.90;;;;;;5071175;28;20098;-67
2022/09/07 08:18:14;;;;;;;31.33;23.60;;;19.00;99.90;;;;;;5071364;28;20044;-67
2022/09/07 08:20:40;;;;;;;32.30;24.48;;;19.00;99.90;;;;;;5069994;28;20047;-67
2022/09/07 08:23:07;;;;;;;30.02;23.15;;;19.10;99.90;;;;;;5067929;28;20415;-67
2022/09/07 08:25:33;;;;;;;37.35;23.88;;;19.10;99.90;;;;;;5060902;28;20039;-67
2022/09/07 08:27:59;;;;;;;30.33;22.90;;;19.10;99.90;;;;;;5057574;28;20036;-67
2022/09/07 08:30:24;;;;;;;32.28;22.42;;;19.10;99.90;;;;;;5051211;28;20110;-67
2022/09/07 08:32:50;;;;;;;32.15;22.60;;;19.20;99.90;;;;;;5051066;28;20406;-67
2022/09/07 08:35:16;;;;;;;30.67;23.20;;;19.20;99.90;;;;;;5053285;28;20040;-69
2022/09/07 08:37:41;;;;;;;31.90;21.98;;;19.20;99.90;;;;;;5055279;28;20037;-68
2022/09/07 08:40:14;;;;;;;30.98;23.60;;;19.20;99.90;;;;;;5055106;28;20168;-68
2022/09/07 08:42:47;;;;;;;29.60;22.13;;;19.10;99.90;;;;;;5054370;28;20037;-67
2022/09/07 08:45:20;;;;;;;31.05;22.05;;;19.20;99.90;;;;;;5054661;28;20039;-69
2022/09/07 08:47:49;;;;;;;30.63;22.08;;;19.30;99.90;;;;;;5054871;28;20045;-68
2022/09/07 08:50:32;;;;;;;31.25;23.27;;;19.20;99.90;;;;;;5061742;28;20061;-68
2022/09/07 08:53:07;;;;;;;32.83;23.52;;;19.20;99.90;;;;;;5063430;28;20507;-68
2022/09/07 08:55:53;;;;;;;27.60;21.80;;;19.20;99.90;;;;;;5054898;28;20089;-69
2022/09/07 08:58:30;;;;;;;29.88;21.77;;;19.30;99.90;;;;;;5054657;28;20040;-68
2022/09/07 09:00:55;;;;;;;27.95;22.10;;;19.40;99.90;;;;;;5051467;28;20037;-69
2022/09/07 09:03:25;;;;;;;26.48;19.77;;;19.50;99.90;;;;;;5063646;28;20372;-69
2022/09/07 09:06:32;;;;;;;28.95;19.88;;;19.50;99.90;;;;;;5063304;28;20040;-69
2022/09/07 09:09:07;;;;;;;23.70;19.50;;;19.50;99.90;;;;;;5024410;28;20113;-69
2022/09/07 09:11:59;;;;;;;28.13;19.83;;;19.60;99.90;;;;;;5074385;28;20440;-68
2022/09/07 09:14:41;;;;;;;26.48;19.70;;;19.60;99.90;;;;;;5074069;28;20044;-69
2022/09/07 09:17:17;;;;;;;30.08;19.05;;;19.60;99.90;;;;;;5073978;28;20410;-70
2022/09/07 09:20:08;;;;;;;25.10;18.52;;;19.70;99.90;;;;;;5073980;28;20048;-69
2022/09/07 09:22:34;;;;;;;25.67;16.92;;;19.80;99.90;;;;;;5064778;28;20111;-69
2022/09/07 09:25:16;;;;;;;20.90;16.48;;;19.80;99.90;;;;;;5062563;28;20566;-68
2022/09/07 09:27:41;;;;;;;23.73;18.35;;;19.80;99.90;;;;;;5061691;28;20091;-69
2022/09/07 09:30:19;;;;;;;22.58;17.88;;;19.80;99.90;;;;;;5070582;28;20044;-69
2022/09/07 09:32:48;;;;;;;21.70;17.25;;;19.80;99.90;;;;;;5053828;28;20067;-68
2022/09/07 09:35:33;;;;;;;25.42;18.73;;;19.80;99.90;;;;;;5052425;28;20053;-69
2022/09/07 09:38:02;;;;;;;25.42;17.45;;;19.80;99.90;;;;;;5060556;28;20044;-68
2022/09/07 09:40:32;;;;;;;25.52;17.10;;;19.80;99.90;;;;;;5050574;28;20052;-70
2022/09/07 09:43:30;;;;;;;21.63;16.77;;;19.90;99.90;;;;;;5051211;28;20045;-69
2022/09/07 09:45:57;;;;;;;23.50;17.13;;;20.00;99.90;;;;;;5038706;28;20490;-70
2022/09/07 09:48:35;;;;;;;22.42;15.82;;;20.00;99.90;;;;;;5051111;28;20607;-70
2022/09/07 09:51:03;;;;;;;19.70;16.00;;;20.00;99.90;;;;;;5068905;28;20119;-69
2022/09/07 09:53:34;;;;;;;20.65;15.02;;;20.10;99.90;;;;;;5071733;28;20094;-69
2022/09/07 09:56:02;;;;;;;21.42;16.52;;;20.10;99.90;;;;;;5052963;28;20131;-69
2022/09/07 09:58:37;;;;;;;22.52;16.00;;;20.10;99.90;;;;;;5051389;28;20041;-68
2022/09/07 10:01:18;;;;;;;24.05;16.30;;;20.20;99.90;;;;;;5055751;28;20494;-68
2022/09/07 10:03:44;;;;;;;20.02;15.32;;;20.30;99.90;;;;;;5073152;28;20121;-68
2022/09/07 10:06:14;;;;;;;20.40;14.63;;;20.30;99.90;;;;;;5073023;28;20044;-68
2022/09/07 10:08:56;;;;;;;20.98;14.43;;;20.40;99.90;;;;;;5072831;28;20032;-68
2022/09/07 10:11:41;;;;;;;16.67;13.57;;;20.40;99.90;;;;;;5072547;28;20644;-68
2022/09/07 10:14:22;;;;;;;16.13;13.43;;;20.50;99.90;;;;;;5072778;28;20048;-68
2022/09/07 10:16:48;;;;;;;18.20;13.60;;;20.50;99.90;;;;;;5072668;28;20044;-68
2022/09/07 10:19:27;;;;;;;18.65;13.95;;;20.50;99.90;;;;;;5072819;28;20415;-68
2022/09/07 10:21:58;;;;;;;22.65;14.35;;;20.60;99.90;;;;;;5072604;28;20514;-69
2022/09/07 10:24:27;;;;;;;22.90;15.43;;;20.60;99.90;;;;;;5065114;28;20036;-69
2022/09/07 10:26:53;;;;;;;17.23;13.82;;;20.50;99.90;;;;;;5069664;28;20055;-69
2022/09/07 10:29:30;;;;;;;16.17;13.05;;;20.60;99.90;;;;;;5059561;28;20029;-70
2022/09/07 10:32:20;;;;;;;22.02;14.27;;;20.70;99.90;;;;;;5052394;28;20479;-69
2022/09/07 10:35:16;;;;;;;17.67;13.98;;;20.70;99.90;;;;;;5052230;28;20041;-68
2022/09/07 10:38:13;;;;;;;15.98;12.73;;;20.70;99.90;;;;;;5052346;28;20064;-67
2022/09/07 10:40:59;;;;;;;15.27;12.70;;;20.70;99.90;;;;;;5052065;28;20079;-66
2022/09/07 10:43:35;;;;;;;17.13;12.63;;;20.80;99.90;;;;;;5044490;28;20052;-66
2022/09/07 10:46:22;;;;;;;16.95;12.98;;;20.80;99.90;;;;;;5059261;28;20040;-66
2022/09/07 10:49:30;;;;;;;13.73;11.18;;;20.90;99.90;;;;;;5068877;28;20456;-66
2022/09/07 10:52:07;;;;;;;15.80;11.93;;;20.90;99.90;;;;;;5072563;28;20055;-66
2022/09/07 10:54:49;;;;;;;15.48;10.20;;;21.00;99.90;;;;;;5071883;28;20048;-66
2022/09/07 10:57:30;;;;;;;13.33;9.60;;;21.10;99.90;;;;;;5071025;28;20057;-66
2022/09/07 11:00:02;;;;;;;8.95;7.82;;;21.10;99.90;;;;;;5071749;28;20274;-66
2022/09/07 11:02:52;;;;;;;8.25;6.82;;;21.10;99.90;;;;;;5071000;28;20170;-66
2022/09/07 11:05:55;;;;;;;10.13;7.97;;;21.10;99.90;;;;;;5070271;28;20410;-66
2022/09/07 11:08:50;;;;;;;9.73;7.25;;;21.20;99.90;;;;;;5071451;28;20043;-66
2022/09/07 11:11:53;;;;;;;8.05;7.22;;;21.20;99.90;;;;;;5071886;28;20091;-66
2022/09/07 11:14:20;;;;;;;12.60;9.60;;;21.30;99.90;;;;;;5071728;28;20044;-66
2022/09/07 11:16:54;;;;;;;12.07;8.68;;;21.40;99.90;;;;;;5071885;28;20046;-66
2022/09/07 11:19:30;;;;;;;12.27;8.10;;;21.50;99.90;;;;;;5071827;28;20040;-66
2022/09/07 11:22:09;;;;;;;7.22;6.47;;;21.40;99.90;;;;;;5071538;28;20036;-66
2022/09/07 11:25:11;;;;;;;12.00;7.50;;;21.50;99.90;;;;;;5071503;28;20048;-66
2022/09/07 11:27:46;;;;;;;9.60;7.27;;;21.40;99.90;;;;;;5062375;28;20112;-66
2022/09/07 11:30:12;;;;;;;11.93;7.70;;;21.30;99.90;;;;;;5059510;28;20430;-68
2022/09/07 11:33:09;;;;;;;9.32;8.02;;;21.30;99.90;;;;;;5051097;28;20120;-68
2022/09/07 11:35:42;;;;;;;10.52;7.47;;;21.30;99.90;;;;;;5050795;28;20099;-67
2022/09/07 11:38:37;;;;;;;9.02;7.82;;;21.30;99.90;;;;;;5050080;28;20042;-68
2022/09/07 11:41:06;;;;;;;7.40;6.65;;;21.40;99.90;;;;;;5045885;28;20053;-67
2022/09/07 11:43:40;;;;;;;10.65;7.28;;;21.40;99.90;;;;;;5050188;28;20125;-67
2022/09/07 11:46:28;;;;;;;13.45;6.80;;;21.40;99.90;;;;;;5051308;28;20128;-69
2022/09/07 11:48:56;;;;;;;10.32;6.57;;;21.40;99.90;;;;;;5050286;28;20048;-69
2022/09/07 11:51:50;;;;;;;8.15;6.75;;;21.40;99.90;;;;;;5051143;28;20037;-69
2022/09/07 11:54:34;;;;;;;10.00;6.85;;;21.40;99.90;;;;;;5049940;28;20402;-68
2022/09/07 11:57:24;;;;;;;7.30;6.30;;;21.40;99.90;;;;;;5051381;28;20404;-69
2022/09/07 12:00:06;;;;;;;10.80;6.72;;;21.40;99.90;;;;;;5051189;28;20110;-68
2022/09/07 12:03:10;;;;;;;8.60;6.30;;;21.50;99.90;;;;;;5049753;28;20125;-68
2022/09/07 12:05:57;;;;;;;6.80;6.07;;;21.60;99.90;;;;;;5049791;28;20051;-68
2022/09/07 12:08:35;;;;;;;9.88;6.38;;;21.60;99.90;;;;;;5051722;28;20629;-68
2022/09/07 12:11:56;;;;;;;7.93;6.50;;;21.70;99.90;;;;;;5054188;28;20043;-68
2022/09/07 12:14:40;;;;;;;9.35;5.82;;;21.70;99.90;;;;;;4993468;28;20084;-69
2022/09/07 12:17:27;;;;;;;7.15;6.18;;;21.70;99.90;;;;;;5064287;28;20052;-69
2022/09/07 12:20:16;;;;;;;9.13;6.03;;;21.80;99.90;;;;;;5055311;28;20083;-69
2022/09/07 12:23:16;;;;;;;9.15;6.53;;;21.80;99.90;;;;;;5054195;28;20107;-69
2022/09/07 12:25:49;;;;;;;7.53;6.00;;;21.90;99.90;;;;;;5055185;28;20452;-69
2022/09/07 12:28:16;;;;;;;7.43;6.70;;;22.00;99.90;;;;;;5053524;28;20520;-68
2022/09/07 12:30:57;;;;;;;8.73;6.03;;;22.00;99.90;;;;;;5060252;28;20048;-68
2022/09/07 12:33:28;;;;;;;6.68;5.70;;;22.00;99.90;;;;;;5062463;28;20123;-68
2022/09/07 12:35:56;;;;;;;9.75;7.53;;;22.10;99.90;;;;;;5065088;28;20044;-68
2022/09/07 12:38:32;;;;;;;8.10;5.68;;;22.10;99.90;;;;;;5061898;28;20044;-67
2022/09/07 12:41:01;;;;;;;6.38;4.65;;;22.10;99.90;;;;;;5064552;28;20037;-68
2022/09/07 12:43:26;;;;;;;7.05;4.50;;;22.20;99.90;;;;;;5066072;28;20083;-68
2022/09/07 12:45:53;;;;;;;5.65;4.68;;;22.20;99.90;;;;;;5053280;28;20072;-68
2022/09/07 12:48:45;;;;;;;5.20;4.45;;;22.20;99.90;;;;;;5052767;28;20040;-67
2022/09/07 12:51:22;;;;;;;5.95;4.45;;;22.20;99.90;;;;;;5053458;28;20040;-67
2022/09/07 12:54:20;;;;;;;6.00;4.47;;;22.20;99.90;;;;;;5054530;28;20037;-67
2022/09/07 12:57:02;;;;;;;6.28;4.53;;;22.10;99.90;;;;;;5054341;28;20045;-67
2022/09/07 12:59:59;;;;;;;5.82;4.35;;;22.20;99.90;;;;;;5054712;28;20041;-67
2022/09/07 13:02:46;;;;;;;5.40;4.07;;;22.30;99.90;;;;;;5051754;28;20106;-67
2022/09/07 13:05:32;;;;;;;8.05;3.72;;;22.30;99.90;;;;;;5053973;28;20411;-67
2022/09/07 13:08:24;;;;;;;4.15;3.60;;;22.40;99.90;;;;;;5012300;28;20057;-67